Time;durP1;ratioP1;P1;durP2;ratioP2;P2;SDS_P1;SDS_P2;PMS_P1;PMS_P2;Temp;Humidity;BMP_temperature;BMP_pressure;BME280_temperature;BME280_humidity;BME280_pressure;Samples;Min_cycle;Max_cycle;Signal;HPM_P1;HPM_P2
2021/12/12 00:00:29;;;;;;;42.47;17.05;;;-0.70;99.90;;;;;;5033611;28;20389;-49
2021/12/12 00:03:00;;;;;;;40.90;15.90;;;-0.70;99.90;;;;;;5014412;28;20034;-47
2021/12/12 00:05:45;;;;;;;47.22;19.77;;;-0.80;99.90;;;;;;5015073;28;20466;-49
2021/12/12 00:08:15;;;;;;;47.95;20.00;;;-0.90;99.90;;;;;;5016186;28;20025;-45
2021/12/12 00:10:44;;;;;;;49.08;18.25;;;-0.90;99.90;;;;;;5016439;28;20041;-47
2021/12/12 00:13:18;;;;;;;47.72;17.83;;;-1.00;99.90;;;;;;5016182;28;20113;-45
2021/12/12 00:15:44;;;;;;;37.50;14.60;;;-1.00;99.90;;;;;;5016430;28;20148;-45
2021/12/12 00:18:09;;;;;;;44.42;17.40;;;-1.10;99.90;;;;;;5015974;28;20062;-45
2021/12/12 00:20:37;;;;;;;40.22;16.45;;;-1.10;99.90;;;;;;5015040;28;20421;-45
2021/12/12 00:23:04;;;;;;;37.00;14.90;;;-1.20;99.90;;;;;;5015858;28;20071;-44
2021/12/12 00:25:37;;;;;;;33.88;13.95;;;-1.20;99.90;;;;;;5016049;28;20117;-46
2021/12/12 00:28:04;;;;;;;37.80;15.00;;;-1.30;99.90;;;;;;5016173;28;20036;-43
2021/12/12 00:30:30;;;;;;;36.67;14.85;;;-1.30;99.90;;;;;;5015954;28;20080;-45
2021/12/12 00:32:56;;;;;;;42.40;14.85;;;-1.30;99.90;;;;;;4998158;28;20029;-44
2021/12/12 00:35:22;;;;;;;41.75;15.90;;;-1.30;99.90;;;;;;5014541;28;20053;-46
2021/12/12 00:37:57;;;;;;;40.95;15.57;;;-1.30;99.90;;;;;;5015882;28;20053;-49
2021/12/12 00:40:26;;;;;;;36.65;13.63;;;-1.30;99.90;;;;;;5015837;28;20451;-46
2021/12/12 00:42:58;;;;;;;46.90;14.70;;;-1.30;99.90;;;;;;5015514;28;20049;-46
2021/12/12 00:45:23;;;;;;;40.80;14.05;;;-1.30;99.90;;;;;;5015554;28;20030;-46
2021/12/12 00:47:49;;;;;;;39.92;13.30;;;-1.30;99.90;;;;;;5015690;28;20044;-47
2021/12/12 00:50:38;;;;;;;47.60;15.02;;;-1.40;99.90;;;;;;5014166;28;20050;-45
2021/12/12 00:53:05;;;;;;;39.58;13.77;;;-1.40;99.90;;;;;;5015178;28;20128;-45
2021/12/12 00:55:37;;;;;;;52.67;16.77;;;-1.40;99.90;;;;;;5014434;28;20037;-44
2021/12/12 00:58:07;;;;;;;47.78;15.90;;;-1.50;99.90;;;;;;5017592;28;20374;-46
2021/12/12 01:00:38;;;;;;;46.97;15.52;;;-1.50;99.90;;;;;;5035263;28;20022;-47
2021/12/12 01:03:08;;;;;;;52.20;15.65;;;-1.50;99.90;;;;;;5027339;28;20029;-46
2021/12/12 01:05:34;;;;;;;38.35;14.45;;;-1.60;99.90;;;;;;5013865;28;20034;-44
2021/12/12 01:07:59;;;;;;;48.90;14.88;;;-1.60;99.90;;;;;;5013250;28;20473;-45
2021/12/12 01:10:31;;;;;;;37.80;13.27;;;-1.60;99.90;;;;;;5003256;28;20060;-47
2021/12/12 01:12:59;;;;;;;42.13;14.70;;;-1.70;99.90;;;;;;4995657;28;20481;-43
2021/12/12 01:15:40;;;;;;;36.22;13.38;;;-1.60;99.90;;;;;;5010525;28;20505;-45
2021/12/12 01:18:11;;;;;;;42.30;14.32;;;-1.60;99.90;;;;;;5013088;28;20489;-46
2021/12/12 01:20:56;;;;;;;50.83;18.77;;;-1.60;99.90;;;;;;5012394;28;20026;-43
2021/12/12 01:23:38;;;;;;;60.33;18.30;;;-1.50;99.90;;;;;;5012972;28;20045;-48
2021/12/12 01:26:07;;;;;;;44.10;15.70;;;-1.40;99.90;;;;;;5002670;28;20049;-45
2021/12/12 01:28:33;;;;;;;51.92;19.75;;;-1.30;99.90;;;;;;5011484;28;20038;-45
2021/12/12 01:31:04;;;;;;;62.38;19.65;;;-1.30;99.90;;;;;;5013203;28;20516;-46
2021/12/12 01:33:35;;;;;;;41.90;15.27;;;-1.20;99.90;;;;;;5012494;28;20116;-45
2021/12/12 01:36:23;;;;;;;54.63;18.08;;;-1.20;99.90;;;;;;5012261;28;20026;-46
2021/12/12 01:38:55;;;;;;;45.70;15.80;;;-1.20;99.90;;;;;;5012796;28;20488;-44
2021/12/12 01:41:34;;;;;;;42.67;15.00;;;-1.20;99.90;;;;;;5012443;28;20033;-47
2021/12/12 01:44:06;;;;;;;54.55;16.83;;;-1.20;99.90;;;;;;5012690;28;20037;-45
2021/12/12 01:46:41;;;;;;;53.92;17.90;;;-1.20;99.90;;;;;;5012744;28;20022;-46
2021/12/12 01:49:15;;;;;;;55.05;16.95;;;-1.20;99.90;;;;;;5012574;28;20057;-48
2021/12/12 01:51:43;;;;;;;55.80;17.67;;;-1.30;99.90;;;;;;5011166;28;20044;-44
2021/12/12 01:54:12;;;;;;;36.10;12.55;;;-1.30;99.90;;;;;;5012375;28;20025;-45
2021/12/12 01:56:50;;;;;;;41.60;14.25;;;-1.40;99.90;;;;;;5007910;28;20033;-44
2021/12/12 01:59:18;;;;;;;43.35;16.73;;;-1.40;99.90;;;;;;5012153;28;20050;-45
2021/12/12 02:01:54;;;;;;;45.50;15.18;;;-1.40;99.90;;;;;;4999645;28;20494;-44
2021/12/12 02:04:29;;;;;;;40.63;14.73;;;-1.50;99.90;;;;;;5011891;28;20041;-43
2021/12/12 02:06:57;;;;;;;44.15;15.60;;;-1.50;99.90;;;;;;5011064;28;20022;-48
2021/12/12 02:09:24;;;;;;;40.38;14.23;;;-1.50;99.90;;;;;;5012181;28;20026;-48
2021/12/12 02:11:56;;;;;;;44.40;15.38;;;-1.50;99.90;;;;;;4994846;28;20030;-47
2021/12/12 02:14:23;;;;;;;45.28;16.48;;;-1.60;99.90;;;;;;5012106;28;20022;-45
2021/12/12 02:17:20;;;;;;;47.67;16.40;;;-1.60;99.90;;;;;;5005176;28;20026;-45
2021/12/12 02:20:06;;;;;;;55.50;17.95;;;-1.60;99.90;;;;;;4999605;28;20030;-45
2021/12/12 02:36:09;;;;;;;46.85;15.57;;;-1.80;99.90;;;;;;5010695;28;20037;-44
2021/12/12 02:38:35;;;;;;;46.35;16.48;;;-1.90;99.90;;;;;;5011429;28;20112;-43
2021/12/12 02:41:10;;;;;;;52.33;15.52;;;-1.80;99.90;;;;;;5011867;28;20077;-44
2021/12/12 02:43:42;;;;;;;54.70;17.02;;;-1.80;99.90;;;;;;5011473;28;20114;-45
2021/12/12 02:46:10;;;;;;;57.80;18.45;;;-1.80;99.90;;;;;;5011822;28;20504;-47
2021/12/12 02:48:39;;;;;;;66.50;19.95;;;-1.90;99.90;;;;;;5011470;28;20022;-42
2021/12/12 02:51:13;;;;;;;48.17;17.80;;;-1.90;99.90;;;;;;5010452;28;20117;-42
2021/12/12 02:53:42;;;;;;;45.80;15.27;;;-1.90;99.90;;;;;;5011325;28;20036;-43
2021/12/12 02:56:12;;;;;;;54.22;15.85;;;-2.00;99.90;;;;;;5011447;28;20148;-46
2021/12/12 02:58:41;;;;;;;67.00;20.90;;;-2.00;99.90;;;;;;5011002;28;20036;-46
2021/12/12 03:01:30;;;;;;;74.20;23.98;;;-2.00;99.90;;;;;;5011498;28;20036;-50
2021/12/12 03:03:55;;;;;;;140.98;34.25;;;-2.00;99.90;;;;;;5011299;28;20484;-45
2021/12/12 03:06:26;;;;;;;164.35;35.78;;;-2.10;99.90;;;;;;5010054;28;20022;-43
2021/12/12 03:08:57;;;;;;;101.47;28.60;;;-2.10;99.90;;;;;;5011330;28;20105;-45
2021/12/12 03:11:27;;;;;;;47.60;17.98;;;-2.10;99.90;;;;;;5011380;28;20380;-45
2021/12/12 03:13:53;;;;;;;67.07;21.52;;;-2.10;99.90;;;;;;5011270;28;20049;-43
2021/12/12 03:16:20;;;;;;;61.45;20.20;;;-2.10;99.90;;;;;;5008027;28;20081;-47
2021/12/12 03:18:46;;;;;;;58.35;19.15;;;-2.20;99.90;;;;;;5003556;28;20092;-49
2021/12/12 03:21:29;;;;;;;43.80;16.98;;;-2.10;99.90;;;;;;5010014;28;20022;-45
2021/12/12 03:23:56;;;;;;;49.00;16.65;;;-2.10;99.90;;;;;;5010887;28;20053;-47
2021/12/12 03:26:22;;;;;;;49.50;17.98;;;-2.10;99.90;;;;;;5011024;28;20022;-46
2021/12/12 03:28:52;;;;;;;46.55;16.85;;;-2.10;99.90;;;;;;5010989;28;20053;-47
2021/12/12 03:31:31;;;;;;;39.25;13.93;;;-2.10;99.90;;;;;;4993541;28;20438;-45
2021/12/12 03:34:00;;;;;;;38.90;14.80;;;-2.10;99.90;;;;;;5010631;28;20117;-43
2021/12/12 03:36:26;;;;;;;43.15;14.57;;;-2.10;99.90;;;;;;5009735;28;20115;-42
2021/12/12 03:38:59;;;;;;;38.33;13.52;;;-2.10;99.90;;;;;;5010786;28;20091;-43
2021/12/12 03:41:30;;;;;;;41.22;14.27;;;-2.00;99.90;;;;;;4993203;28;20057;-42
2021/12/12 03:44:00;;;;;;;36.60;13.45;;;-2.10;99.90;;;;;;5009519;28;20504;-46
2021/12/12 03:46:25;;;;;;;48.95;16.05;;;-2.10;99.90;;;;;;5012502;28;20029;-46
2021/12/12 03:48:51;;;;;;;43.42;15.52;;;-2.10;99.90;;;;;;5012331;28;20029;-46
2021/12/12 03:51:20;;;;;;;46.25;16.58;;;-2.00;99.90;;;;;;5011429;28;20034;-45
2021/12/12 03:53:46;;;;;;;42.25;15.20;;;-2.00;99.90;;;;;;5012407;28;20057;-43
2021/12/12 03:56:14;;;;;;;45.60;15.73;;;-2.10;99.90;;;;;;5012270;28;20030;-44
2021/12/12 03:58:40;;;;;;;44.75;16.15;;;-2.10;99.90;;;;;;5019746;28;20040;-45
2021/12/12 04:01:18;;;;;;;30.23;12.27;;;-2.10;99.90;;;;;;5031944;28;20032;-45
2021/12/12 04:03:45;;;;;;;38.72;14.95;;;-2.00;99.90;;;;;;5019091;28;20030;-44
2021/12/12 04:06:14;;;;;;;39.03;14.48;;;-2.00;99.90;;;;;;5011205;28;20025;-45
2021/12/12 04:08:43;;;;;;;39.22;14.95;;;-2.00;99.90;;;;;;5012442;28;20018;-45
2021/12/12 04:11:16;;;;;;;42.80;15.65;;;-2.00;99.90;;;;;;5012463;28;20392;-42
2021/12/12 04:13:44;;;;;;;47.20;16.33;;;-2.00;99.90;;;;;;5012231;28;20311;-42
2021/12/12 04:16:10;;;;;;;45.03;15.27;;;-2.00;99.90;;;;;;5012424;28;20061;-45
2021/12/12 04:18:36;;;;;;;36.58;15.32;;;-2.00;99.90;;;;;;5012057;28;20061;-43
2021/12/12 04:21:02;;;;;;;40.33;14.13;;;-2.10;99.90;;;;;;5011520;28;20055;-44
2021/12/12 04:23:28;;;;;;;34.20;14.02;;;-2.00;99.90;;;;;;5012223;28;20029;-44
2021/12/12 04:26:08;;;;;;;36.45;13.88;;;-2.00;99.90;;;;;;5012189;28;20029;-44
2021/12/12 04:28:33;;;;;;;36.53;14.07;;;-2.00;99.90;;;;;;5012097;28;20443;-46
2021/12/12 04:30:59;;;;;;;40.83;13.35;;;-2.00;99.90;;;;;;5014738;28;20100;-45
2021/12/12 04:33:25;;;;;;;46.05;15.68;;;-2.00;99.90;;;;;;5015950;28;20042;-45
2021/12/12 04:35:51;;;;;;;37.53;13.57;;;-2.00;99.90;;;;;;5014506;28;20505;-45
2021/12/12 04:38:16;;;;;;;40.08;15.18;;;-2.00;99.90;;;;;;5015888;28;20041;-42
2021/12/12 04:40:42;;;;;;;40.30;15.48;;;-1.90;99.90;;;;;;5015494;28;20429;-45
2021/12/12 04:43:07;;;;;;;37.40;13.23;;;-1.90;99.90;;;;;;5015739;28;20425;-43
2021/12/12 04:46:06;;;;;;;40.38;13.95;;;-1.90;99.90;;;;;;5015567;28;20062;-42
2021/12/12 04:51:48;;;;;;;36.53;14.57;;;-1.90;99.90;;;;;;5014712;28;20048;-43
2021/12/12 04:54:29;;;;;;;31.00;13.30;;;-1.90;99.90;;;;;;5015483;28;20030;-45
2021/12/12 04:57:12;;;;;;;38.17;15.10;;;-1.90;99.90;;;;;;5015493;28;20038;-43
2021/12/12 04:59:45;;;;;;;35.85;15.15;;;-1.90;99.90;;;;;;5030266;28;20079;-45
2021/12/12 05:02:31;;;;;;;33.08;14.05;;;-1.90;99.90;;;;;;5034712;28;20036;-46
2021/12/12 05:05:02;;;;;;;32.47;11.52;;;-1.80;99.90;;;;;;5014386;28;20037;-42
2021/12/12 05:07:44;;;;;;;32.28;13.68;;;-1.90;99.90;;;;;;5015365;28;20022;-46
2021/12/12 05:10:22;;;;;;;33.38;13.48;;;-1.90;99.90;;;;;;5015292;28;20034;-44
2021/12/12 05:12:56;;;;;;;39.75;15.95;;;-1.90;99.90;;;;;;5015104;28;20030;-47
2021/12/12 05:15:30;;;;;;;40.50;14.98;;;-1.90;99.90;;;;;;5015232;28;20034;-47
2021/12/12 05:18:08;;;;;;;40.00;16.15;;;-1.90;99.90;;;;;;5015141;28;20034;-47
2021/12/12 05:20:41;;;;;;;31.75;13.60;;;-1.90;99.90;;;;;;5014054;28;20022;-45
2021/12/12 05:23:09;;;;;;;40.65;16.05;;;-1.90;99.90;;;;;;5015476;28;20032;-45
2021/12/12 05:25:40;;;;;;;42.03;16.10;;;-1.80;99.90;;;;;;5014958;28;20026;-45
2021/12/12 05:28:09;;;;;;;28.00;12.45;;;-1.80;99.90;;;;;;5015008;28;20026;-46
2021/12/12 05:30:36;;;;;;;34.50;14.43;;;-1.70;99.90;;;;;;5014718;28;20030;-46
2021/12/12 05:33:04;;;;;;;39.17;14.20;;;-1.60;99.90;;;;;;5014827;28;20061;-47
2021/12/12 05:35:33;;;;;;;22.02;11.43;;;-1.50;99.90;;;;;;4996350;28;20038;-44
2021/12/12 05:37:59;;;;;;;33.17;13.93;;;-1.50;99.90;;;;;;5014842;28;20030;-47
2021/12/12 05:40:29;;;;;;;41.00;16.15;;;-1.40;99.90;;;;;;5014332;28;20540;-45
2021/12/12 05:42:59;;;;;;;34.42;14.63;;;-1.30;99.90;;;;;;5014637;28;20062;-46
2021/12/12 05:45:26;;;;;;;35.95;15.43;;;-1.10;99.90;;;;;;5007996;28;20058;-43
2021/12/12 05:47:51;;;;;;;31.85;14.43;;;-1.10;99.90;;;;;;5012659;28;20041;-45
2021/12/12 05:50:18;;;;;;;35.97;14.55;;;-1.00;99.90;;;;;;4990934;28;20062;-45
2021/12/12 05:52:45;;;;;;;34.25;14.10;;;-0.90;99.90;;;;;;4992204;28;20042;-43
2021/12/12 05:55:14;;;;;;;34.88;14.77;;;-0.80;99.90;;;;;;4993132;28;20109;-47
2021/12/12 05:57:43;;;;;;;34.60;15.20;;;-0.70;99.90;;;;;;4993028;28;20042;-49
2021/12/12 06:00:13;;;;;;;43.20;16.83;;;-0.60;99.90;;;;;;4992765;28;20484;-45
2021/12/12 06:02:39;;;;;;;34.22;14.45;;;-0.60;99.90;;;;;;4983481;28;20029;-47
2021/12/12 06:05:05;;;;;;;31.50;14.52;;;-0.50;99.90;;;;;;4991814;28;20026;-47
2021/12/12 06:07:32;;;;;;;33.88;14.50;;;-0.40;99.90;;;;;;4991841;28;20117;-48
2021/12/12 06:10:03;;;;;;;37.15;15.45;;;-0.40;99.90;;;;;;4992872;28;20054;-45
2021/12/12 06:12:31;;;;;;;34.35;15.38;;;-0.30;99.90;;;;;;4992744;28;20068;-44
2021/12/12 06:14:58;;;;;;;37.35;15.25;;;-0.20;99.90;;;;;;4992615;28;20092;-44
2021/12/12 06:17:25;;;;;;;33.35;14.57;;;-0.20;99.90;;;;;;4992611;28;20064;-48
2021/12/12 06:19:51;;;;;;;30.02;13.60;;;-0.20;99.90;;;;;;4986842;28;20045;-45
2021/12/12 06:22:17;;;;;;;33.58;16.13;;;-0.10;99.90;;;;;;4991480;28;20477;-48
2021/12/12 06:24:43;;;;;;;33.65;16.77;;;-0.10;99.90;;;;;;4992545;28;20034;-43
2021/12/12 06:27:19;;;;;;;31.40;15.05;;;-0.10;99.90;;;;;;4991322;28;20388;-46
2021/12/12 06:29:48;;;;;;;35.63;14.77;;;0.00;99.90;;;;;;4992132;28;20030;-44
2021/12/12 06:32:15;;;;;;;39.08;18.15;;;0.00;99.90;;;;;;4992235;28;20038;-45
2021/12/12 06:34:41;;;;;;;40.45;17.10;;;0.00;99.90;;;;;;4991398;28;20109;-45
2021/12/12 06:37:07;;;;;;;33.35;17.00;;;0.00;99.90;;;;;;4992250;28;20467;-46
2021/12/12 06:39:33;;;;;;;33.75;14.70;;;0.00;99.90;;;;;;4992173;28;20460;-45
2021/12/12 06:41:59;;;;;;;37.28;16.98;;;0.10;99.90;;;;;;4992219;28;20037;-45
2021/12/12 06:44:25;;;;;;;40.80;17.63;;;0.10;99.90;;;;;;4991959;28;20030;-48
2021/12/12 06:46:53;;;;;;;43.38;18.58;;;0.10;99.90;;;;;;4992094;28;20061;-45
2021/12/12 06:49:19;;;;;;;33.55;16.85;;;0.10;99.90;;;;;;4997170;28;20127;-43
2021/12/12 06:51:52;;;;;;;45.65;18.00;;;0.10;99.90;;;;;;5010535;28;20505;-46
2021/12/12 06:54:22;;;;;;;44.92;19.27;;;0.20;99.90;;;;;;5002395;28;20042;-49
2021/12/12 06:56:50;;;;;;;47.10;16.98;;;0.20;99.90;;;;;;5011392;28;20113;-47
2021/12/12 06:59:16;;;;;;;36.65;16.70;;;0.20;99.90;;;;;;5011643;28;20037;-47
2021/12/12 07:01:42;;;;;;;43.78;16.10;;;0.20;99.90;;;;;;5011327;28;20049;-50
2021/12/12 07:04:11;;;;;;;48.35;20.30;;;0.20;99.90;;;;;;4993866;28;20030;-48
2021/12/12 07:06:39;;;;;;;45.58;17.08;;;0.20;99.90;;;;;;5010303;28;20044;-46
2021/12/12 07:09:08;;;;;;;38.47;16.63;;;0.20;99.90;;;;;;5011504;28;20042;-44
2021/12/12 07:11:35;;;;;;;39.17;16.98;;;0.20;99.90;;;;;;5011314;28;20427;-47
2021/12/12 07:14:01;;;;;;;35.60;15.60;;;0.20;99.90;;;;;;5011390;28;20030;-43
2021/12/12 07:16:27;;;;;;;39.95;17.83;;;0.20;99.90;;;;;;5011044;28;20026;-45
2021/12/12 07:18:54;;;;;;;33.00;16.88;;;0.10;99.90;;;;;;5011240;28;20034;-46
2021/12/12 07:21:23;;;;;;;42.65;19.17;;;0.10;99.90;;;;;;5009901;28;20031;-43
2021/12/12 07:23:49;;;;;;;40.03;18.83;;;0.10;99.90;;;;;;5011360;28;20466;-43
2021/12/12 07:26:17;;;;;;;36.17;17.50;;;0.10;99.90;;;;;;5011053;28;20030;-47
2021/12/12 07:28:44;;;;;;;32.30;14.73;;;0.10;99.90;;;;;;5011199;28;20033;-42
2021/12/12 07:31:17;;;;;;;42.38;18.05;;;0.10;99.90;;;;;;5010784;28;20042;-42
2021/12/12 07:33:44;;;;;;;37.53;17.83;;;0.10;99.90;;;;;;5010841;28;20483;-42
2021/12/12 07:36:12;;;;;;;38.58;17.23;;;0.10;99.90;;;;;;5009773;28;20054;-48
2021/12/12 07:38:42;;;;;;;36.38;17.83;;;0.10;99.90;;;;;;4993480;28;20029;-45
2021/12/12 07:41:08;;;;;;;33.90;15.23;;;0.10;99.90;;;;;;5010708;28;20516;-46
2021/12/12 07:43:34;;;;;;;36.53;17.48;;;0.10;99.90;;;;;;5010352;28;20153;-47
2021/12/12 07:46:02;;;;;;;38.30;18.27;;;0.10;99.90;;;;;;5016672;28;20036;-45
2021/12/12 07:48:27;;;;;;;45.15;19.13;;;0.10;99.90;;;;;;5032295;28;20448;-46
2021/12/12 07:50:53;;;;;;;39.00;17.35;;;0.20;99.90;;;;;;5030693;28;20045;-46
2021/12/12 07:53:22;;;;;;;39.75;19.15;;;0.20;99.90;;;;;;5028829;28;20041;-45
2021/12/12 07:55:48;;;;;;;38.65;18.08;;;0.30;99.90;;;;;;4993733;28;20022;-43
2021/12/12 07:58:16;;;;;;;36.50;18.23;;;0.30;99.90;;;;;;5012242;28;20033;-43
2021/12/12 08:00:45;;;;;;;32.33;15.85;;;0.20;99.90;;;;;;5012524;28;20022;-44
2021/12/12 08:03:14;;;;;;;35.30;16.25;;;0.30;99.90;;;;;;4994488;28;20061;-42
2021/12/12 08:05:40;;;;;;;40.08;18.33;;;0.30;99.90;;;;;;5015153;28;20084;-45
2021/12/12 08:08:10;;;;;;;38.17;17.38;;;0.40;99.90;;;;;;5016184;28;20022;-43
2021/12/12 08:10:39;;;;;;;34.97;17.20;;;0.40;99.90;;;;;;5016370;28;20521;-46
2021/12/12 08:13:06;;;;;;;32.30;15.95;;;0.50;99.90;;;;;;5016088;28;20080;-48
2021/12/12 08:15:31;;;;;;;32.22;16.88;;;0.50;99.90;;;;;;4998251;28;20029;-47
2021/12/12 08:17:59;;;;;;;32.42;17.08;;;0.60;99.90;;;;;;5015846;28;20573;-44
2021/12/12 08:20:27;;;;;;;36.78;16.77;;;0.70;99.90;;;;;;5015170;28;20053;-45
2021/12/12 08:22:53;;;;;;;36.35;18.55;;;0.70;99.90;;;;;;5016108;28;20401;-45
2021/12/12 08:25:20;;;;;;;38.65;19.33;;;0.70;99.90;;;;;;5016014;28;20030;-43
2021/12/12 08:27:47;;;;;;;31.23;16.13;;;0.80;99.90;;;;;;5015878;28;20036;-43
2021/12/12 08:30:16;;;;;;;41.78;18.60;;;0.90;99.90;;;;;;5015375;28;20128;-46
2021/12/12 08:32:45;;;;;;;31.90;16.48;;;0.90;99.90;;;;;;4995390;28;20042;-43
2021/12/12 08:35:13;;;;;;;44.42;18.95;;;1.00;99.90;;;;;;4997098;28;20049;-46
2021/12/12 08:37:40;;;;;;;47.50;18.80;;;1.10;99.90;;;;;;5015882;28;20500;-44
2021/12/12 08:40:07;;;;;;;53.78;22.02;;;1.10;99.90;;;;;;5015739;28;20471;-45
2021/12/12 08:42:33;;;;;;;48.85;19.92;;;1.20;99.90;;;;;;5015547;28;20386;-47
2021/12/12 08:45:04;;;;;;;44.88;17.92;;;1.20;99.90;;;;;;5015552;28;20109;-45
2021/12/12 08:47:32;;;;;;;52.03;19.60;;;1.30;99.90;;;;;;5015515;28;20022;-47
2021/12/12 08:49:57;;;;;;;53.88;22.55;;;1.30;99.90;;;;;;5014687;28;20100;-45
2021/12/12 08:52:34;;;;;;;43.80;21.40;;;1.40;99.90;;;;;;5015559;28;20045;-44
2021/12/12 08:55:01;;;;;;;38.65;17.55;;;1.40;99.90;;;;;;5015527;28;20322;-45
2021/12/12 08:57:46;;;;;;;40.88;18.85;;;1.50;99.90;;;;;;5009167;28;20042;-45
2021/12/12 09:00:16;;;;;;;36.28;17.02;;;1.50;99.90;;;;;;5015452;28;20030;-45
2021/12/12 09:02:42;;;;;;;32.70;17.40;;;1.50;99.90;;;;;;4994321;28;20469;-45
2021/12/12 09:05:16;;;;;;;29.65;15.32;;;1.60;99.90;;;;;;4995516;28;20026;-45
2021/12/12 09:07:46;;;;;;;37.70;16.17;;;1.60;99.90;;;;;;5015006;28;20061;-44
2021/12/12 09:10:30;;;;;;;33.50;16.20;;;1.60;99.90;;;;;;4997449;28;20030;-43
2021/12/12 09:13:06;;;;;;;37.13;17.90;;;1.70;99.90;;;;;;5015130;28;20037;-43
2021/12/12 09:15:52;;;;;;;30.75;14.52;;;1.80;99.90;;;;;;5014334;28;20030;-46
2021/12/12 09:18:24;;;;;;;27.67;13.43;;;1.80;99.90;;;;;;5014531;28;20034;-47
2021/12/12 09:21:06;;;;;;;30.00;14.70;;;1.90;99.90;;;;;;5014158;28;20069;-45
2021/12/12 09:23:37;;;;;;;32.97;14.98;;;2.00;99.90;;;;;;5014916;28;20018;-46
2021/12/12 09:26:10;;;;;;;24.92;13.32;;;2.00;99.90;;;;;;5014819;28;20022;-45
2021/12/12 09:28:55;;;;;;;37.92;17.17;;;2.10;99.90;;;;;;5014557;28;20062;-47
2021/12/12 09:31:28;;;;;;;23.08;12.98;;;2.10;99.90;;;;;;5014636;28;20041;-45
2021/12/12 09:33:59;;;;;;;32.22;15.93;;;2.10;99.90;;;;;;5014539;28;20053;-48
2021/12/12 09:36:44;;;;;;;35.42;15.98;;;2.20;99.90;;;;;;4996092;28;20120;-45
2021/12/12 09:39:17;;;;;;;31.15;14.63;;;2.30;99.90;;;;;;4996747;28;20022;-42
2021/12/12 09:41:58;;;;;;;30.63;14.55;;;2.40;99.90;;;;;;5014614;28;20022;-44
2021/12/12 09:44:37;;;;;;;36.20;14.93;;;2.50;99.90;;;;;;5014281;28;20026;-47
2021/12/12 09:47:30;;;;;;;26.25;14.55;;;2.60;99.90;;;;;;5029842;28;20022;-45
2021/12/12 09:53:11;;;;;;;32.83;16.00;;;2.60;99.90;;;;;;5034374;28;20160;-45
2021/12/12 09:55:45;;;;;;;28.70;13.95;;;2.70;99.90;;;;;;5034123;28;20117;-47
2021/12/12 09:58:34;;;;;;;29.05;14.70;;;2.80;99.90;;;;;;5033958;28;20034;-46
2021/12/12 10:01:25;;;;;;;34.25;14.57;;;2.80;99.90;;;;;;4990023;28;20034;-44
2021/12/12 10:04:16;;;;;;;23.58;11.98;;;2.90;99.90;;;;;;5013964;28;20478;-46
2021/12/12 10:06:57;;;;;;;31.70;15.10;;;2.90;99.90;;;;;;5013124;28;20041;-46
2021/12/12 10:09:29;;;;;;;26.80;13.45;;;3.00;99.90;;;;;;5013954;28;20018;-45
2021/12/12 10:12:06;;;;;;;28.60;14.55;;;3.00;99.90;;;;;;4996502;28;20470;-45
2021/12/12 10:14:43;;;;;;;33.20;15.10;;;3.00;99.90;;;;;;5013738;28;20101;-45
2021/12/12 10:17:29;;;;;;;28.23;15.07;;;3.10;99.90;;;;;;5013769;28;20021;-47
2021/12/12 10:20:08;;;;;;;32.80;14.95;;;3.10;99.90;;;;;;5012863;28;20041;-46
2021/12/12 10:22:41;;;;;;;29.20;13.68;;;3.20;99.90;;;;;;5013784;28;20025;-44
2021/12/12 10:25:13;;;;;;;31.08;15.55;;;3.20;99.90;;;;;;5013547;28;20494;-48
2021/12/12 10:28:06;;;;;;;25.35;13.98;;;3.30;99.90;;;;;;4995076;28;20045;-47
2021/12/12 10:30:38;;;;;;;29.08;14.27;;;3.30;99.90;;;;;;5013457;28;20046;-47
2021/12/12 10:33:41;;;;;;;25.13;13.20;;;3.30;99.90;;;;;;5013511;28;20032;-47
2021/12/12 10:36:13;;;;;;;30.38;14.85;;;3.20;99.90;;;;;;4982473;28;20034;-45
2021/12/12 10:39:00;;;;;;;33.60;14.27;;;3.20;99.90;;;;;;5013341;28;20059;-43
2021/12/12 10:41:38;;;;;;;25.83;14.40;;;3.20;99.90;;;;;;5013257;28;20029;-45
2021/12/12 10:44:07;;;;;;;31.83;17.40;;;3.30;99.90;;;;;;5013506;28;20018;-46
2021/12/12 10:46:47;;;;;;;32.97;17.08;;;3.20;99.90;;;;;;5007024;28;20021;-45
2021/12/12 10:49:27;;;;;;;32.08;16.25;;;3.20;99.90;;;;;;5032868;28;20049;-48
2021/12/12 10:52:08;;;;;;;28.80;16.40;;;3.20;99.90;;;;;;5032788;28;20067;-44
2021/12/12 10:54:54;;;;;;;28.65;14.80;;;3.20;99.90;;;;;;5026694;28;20109;-46
2021/12/12 10:57:27;;;;;;;32.80;16.50;;;3.20;99.90;;;;;;5015232;28;20075;-47
2021/12/12 11:00:11;;;;;;;34.05;17.55;;;3.20;99.90;;;;;;5033261;28;20033;-48
2021/12/12 11:02:47;;;;;;;30.98;16.35;;;3.20;99.90;;;;;;5028816;28;20436;-45
2021/12/12 11:05:17;;;;;;;31.38;16.27;;;3.20;99.90;;;;;;5012113;28;20022;-46
2021/12/12 11:07:53;;;;;;;36.28;19.00;;;3.20;99.90;;;;;;5012971;28;20129;-46
2021/12/12 11:10:27;;;;;;;32.00;16.40;;;3.10;99.90;;;;;;5013113;28;20026;-43
2021/12/12 11:13:21;;;;;;;32.42;16.23;;;3.10;99.90;;;;;;5012853;28;20069;-44
2021/12/12 11:15:55;;;;;;;28.10;15.10;;;3.10;99.90;;;;;;4995605;28;20054;-44
2021/12/12 11:18:28;;;;;;;34.83;17.27;;;3.20;99.90;;;;;;5012746;28;20118;-44
2021/12/12 11:21:04;;;;;;;33.60;18.02;;;3.10;99.90;;;;;;5012084;28;20026;-47
2021/12/12 11:23:41;;;;;;;37.17;19.42;;;3.10;99.90;;;;;;5012779;28;20453;-46
2021/12/12 11:26:20;;;;;;;34.42;17.80;;;3.00;99.90;;;;;;5013444;28;20446;-43
2021/12/12 11:28:52;;;;;;;37.10;18.67;;;3.00;99.90;;;;;;4995163;28;20040;-49
2021/12/12 11:31:31;;;;;;;34.67;18.17;;;3.00;99.90;;;;;;4995276;28;20034;-46
2021/12/12 11:33:57;;;;;;;38.17;19.92;;;3.00;99.90;;;;;;5006807;28;20054;-45
2021/12/12 11:36:31;;;;;;;37.80;19.17;;;3.00;99.90;;;;;;5011773;28;20072;-49
2021/12/12 11:39:18;;;;;;;47.80;21.42;;;3.00;99.90;;;;;;5012484;28;20123;-46
2021/12/12 11:42:03;;;;;;;33.50;16.38;;;3.00;99.90;;;;;;5012994;28;20018;-45
2021/12/12 11:44:46;;;;;;;40.83;19.10;;;3.00;99.90;;;;;;4995041;28;20030;-44
2021/12/12 11:47:50;;;;;;;41.05;19.77;;;3.10;99.90;;;;;;5029504;28;20104;-48
2021/12/12 11:50:48;;;;;;;36.33;17.90;;;3.00;99.90;;;;;;5009275;28;20050;-45
2021/12/12 11:53:17;;;;;;;32.13;15.68;;;3.10;99.90;;;;;;4994651;28;20121;-46
2021/12/12 11:55:51;;;;;;;35.15;18.42;;;3.10;99.90;;;;;;5012002;28;20022;-46
2021/12/12 11:58:32;;;;;;;30.10;15.38;;;3.20;99.90;;;;;;5010473;28;20089;-50
2021/12/12 12:01:28;;;;;;;32.72;15.35;;;3.20;99.90;;;;;;5012235;28;20371;-46
2021/12/12 12:04:11;;;;;;;30.38;14.35;;;3.30;99.90;;;;;;5011618;28;20064;-45
2021/12/12 12:06:55;;;;;;;29.80;16.20;;;3.30;99.90;;;;;;4993297;28;20034;-47
2021/12/12 12:09:53;;;;;;;36.15;16.88;;;3.30;99.90;;;;;;5011375;28;20026;-45
2021/12/12 12:12:52;;;;;;;32.63;14.02;;;3.30;99.90;;;;;;5010448;28;20362;-45
2021/12/12 12:15:49;;;;;;;32.72;15.63;;;3.30;99.90;;;;;;5008415;28;20441;-49
2021/12/12 12:18:39;;;;;;;29.13;14.70;;;3.40;99.90;;;;;;5009841;28;20029;-47
2021/12/12 12:21:19;;;;;;;31.75;15.07;;;3.40;99.90;;;;;;5008871;28;20022;-49
2021/12/12 12:24:13;;;;;;;26.00;13.60;;;3.40;99.90;;;;;;5005318;28;20077;-44
2021/12/12 12:26:51;;;;;;;32.10;15.05;;;3.40;99.90;;;;;;4999158;28;20018;-45
2021/12/12 12:29:32;;;;;;;26.88;11.88;;;3.40;99.90;;;;;;5007449;28;20049;-45
2021/12/12 12:32:07;;;;;;;27.52;13.48;;;3.40;99.90;;;;;;5008145;28;20446;-47
2021/12/12 12:35:09;;;;;;;31.67;14.23;;;3.40;99.90;;;;;;5004357;28;20025;-46
2021/12/12 12:38:12;;;;;;;29.48;14.15;;;3.30;99.90;;;;;;5010168;28;20060;-45
2021/12/12 12:41:00;;;;;;;26.20;12.25;;;3.30;99.90;;;;;;5006701;28;20501;-48
2021/12/12 12:43:51;;;;;;;30.95;14.75;;;3.30;99.90;;;;;;4988565;28;20022;-44
2021/12/12 12:46:54;;;;;;;28.00;13.05;;;3.30;99.90;;;;;;5011035;28;20505;-46
2021/12/12 12:50:03;;;;;;;30.17;14.05;;;3.30;99.90;;;;;;5009500;28;20061;-46
2021/12/12 12:53:03;;;;;;;29.23;13.70;;;3.20;99.90;;;;;;5012258;28;20018;-49
2021/12/12 12:55:45;;;;;;;28.67;13.85;;;3.20;99.90;;;;;;5013559;28;20022;-49
2021/12/12 12:58:24;;;;;;;26.95;14.25;;;3.20;99.90;;;;;;5013535;28;20065;-45
2021/12/12 13:00:57;;;;;;;30.90;14.63;;;3.20;99.90;;;;;;5013649;28;20038;-50
2021/12/12 13:03:38;;;;;;;34.83;16.20;;;3.20;99.90;;;;;;5013328;28;20465;-44
2021/12/12 13:06:26;;;;;;;31.17;15.70;;;3.20;99.90;;;;;;5012808;28;20061;-47
2021/12/12 13:09:16;;;;;;;27.75;14.90;;;3.20;99.90;;;;;;5013187;28;20104;-47
2021/12/12 13:12:13;;;;;;;32.67;15.95;;;3.10;99.90;;;;;;5013541;28;20081;-45
2021/12/12 13:14:58;;;;;;;27.67;13.95;;;3.00;99.90;;;;;;5008196;28;20044;-43
2021/12/12 13:18:06;;;;;;;26.67;14.55;;;3.00;99.90;;;;;;5009707;28;20041;-45
2021/12/12 13:20:49;;;;;;;31.50;15.68;;;2.90;99.90;;;;;;4983774;28;20044;-43
2021/12/12 13:23:36;;;;;;;28.27;14.45;;;2.90;99.90;;;;;;5012548;28;20073;-42
2021/12/12 13:26:10;;;;;;;28.52;15.07;;;2.80;99.90;;;;;;5013002;28;20061;-50